createdAt,value
2022-09-05T00:02:06.214Z,97556.36
2022-09-05T00:05:10.188Z,97563.05
2022-09-05T00:08:21.142Z,97568.36
2022-09-05T00:11:41.853Z,97568.54
2022-09-05T00:15:16.855Z,97562.48
2022-09-05T00:21:17.727Z,97571.04
2022-09-05T00:24:19.519Z,97566.89
2022-09-05T00:25:08.575Z,97567.63
2022-09-05T00:28:26.920Z,97563.16
2022-09-05T00:31:54.561Z,97558.98
2022-09-05T00:35:05.894Z,97553.23
2022-09-05T00:37:53.174Z,97556.91
2022-09-05T00:40:49.550Z,97563.50
2022-09-05T00:43:54.625Z,97564.76
2022-09-05T00:47:00.143Z,97567.23
2022-09-05T00:50:06.558Z,97570.93
2022-09-05T00:53:07.520Z,97561.27
2022-09-05T00:56:13.393Z,97564.66
2022-09-05T00:59:24.529Z,97566.58
2022-09-05T01:03:09.277Z,97568.89
2022-09-05T01:06:13.741Z,97564.65
2022-09-05T01:09:12.862Z,97563.02
2022-09-05T01:12:06.033Z,97561.98
2022-09-05T01:15:19.404Z,97555.29
2022-09-05T01:18:39.817Z,97552.34
2022-09-05T01:21:48.646Z,97560.21
2022-09-05T01:25:03.538Z,97563.88
2022-09-05T01:29:13.850Z,97566.76
2022-09-05T01:31:44.459Z,97563.84
2022-09-05T01:35:01.213Z,97564.98
2022-09-05T01:37:53.419Z,97563.86
2022-09-05T01:41:21.123Z,97562.34
2022-09-05T01:44:29.420Z,97560.53
2022-09-05T01:47:39.551Z,97556.19
2022-09-05T01:50:31.812Z,97553.06
2022-09-05T01:53:41.453Z,97558.02
2022-09-05T01:56:33.667Z,97556.05
2022-09-05T01:59:38.531Z,97554.91
2022-09-05T02:02:48.932Z,97552.17
2022-09-05T02:06:14.152Z,97552.80
2022-09-05T02:09:09.544Z,97548.56
2022-09-05T02:12:17.010Z,97546.51
2022-09-05T02:15:37.298Z,97548.23
2022-09-05T02:18:35.849Z,97548.61
2022-09-05T02:21:27.605Z,97550.27
2022-09-05T02:24:24.481Z,97549.52
2022-09-05T02:27:40.234Z,97549.71
2022-09-05T02:30:30.499Z,97546.70
2022-09-05T02:33:31.514Z,97546.21
2022-09-05T02:36:22.716Z,97548.77
2022-09-05T02:45:02.659Z,97548.39
2022-09-05T02:45:13.551Z,97546.26
2022-09-05T02:46:11.406Z,97538.09
2022-09-05T02:49:26.180Z,97539.48
2022-09-05T02:57:26.025Z,97536.64
2022-09-05T02:58:05.566Z,97544.59
2022-09-05T02:59:36.100Z,97547.14
2022-09-05T03:02:39.924Z,97546.05
2022-09-05T03:05:40.253Z,97546.23
2022-09-05T03:08:55.918Z,97545.91
2022-09-05T03:12:29.142Z,97544.71
2022-09-05T03:15:44.824Z,97545.52
2022-09-05T03:19:11.918Z,97543.78
2022-09-05T03:22:09.712Z,97548.15
2022-09-05T03:25:39.538Z,97543.66
2022-09-05T03:28:50.785Z,97548.56
2022-09-05T03:32:08.964Z,97551.17
2022-09-05T03:35:18.712Z,97556.52
2022-09-05T03:38:21.259Z,97561.58
2022-09-05T03:41:40.077Z,97562.73
2022-09-05T03:44:26.197Z,97563.08
2022-09-05T03:47:30.213Z,97562.69
2022-09-05T03:57:06.019Z,97565.33
2022-09-05T03:57:14.939Z,97567.23
2022-09-05T03:58:02.108Z,97568.75
2022-09-05T04:02:38.789Z,97565.59
2022-09-05T04:08:26.021Z,97568.40
2022-09-05T04:08:33.057Z,97571.72
2022-09-05T04:11:24.518Z,97575.05
2022-09-05T04:14:26.104Z,97575.80
2022-09-05T04:17:35.680Z,97579.80
2022-09-05T04:20:46.348Z,97578.45
2022-09-05T04:23:46.252Z,97577.98
2022-09-05T04:26:43.072Z,97586.83
2022-09-05T04:29:54.481Z,97587.10
2022-09-05T04:32:59.091Z,97591.09
2022-09-05T04:36:02.018Z,97592.39
2022-09-05T04:39:17.484Z,97591.48
2022-09-05T04:42:23.763Z,97591.68
2022-09-05T04:45:22.061Z,97599.73
2022-09-05T04:48:10.850Z,97605.11
2022-09-05T04:51:11.564Z,97608.66
2022-09-05T04:53:58.130Z,97611.15
2022-09-05T04:56:49.326Z,97612.86
2022-09-05T05:05:17.931Z,97611.45
2022-09-05T05:06:05.029Z,97617.99
2022-09-05T05:06:47.333Z,97617.34
2022-09-05T05:09:39.302Z,97618.41
2022-09-05T05:17:56.295Z,97619.01
2022-09-05T05:18:06.170Z,97624.31
2022-09-05T05:19:33.266Z,97627.74
2022-09-05T05:22:18.401Z,97629.84
2022-09-05T05:25:09.986Z,97628.10
2022-09-05T05:28:22.758Z,97633.52
2022-09-05T05:31:17.728Z,97636.27
2022-09-05T05:34:24.224Z,97633.92
2022-09-05T05:37:22.589Z,97633.54
2022-09-05T05:40:25.090Z,97633.52
2022-09-05T05:43:40.040Z,97631.15
2022-09-05T05:46:34.343Z,97635.40
2022-09-05T05:49:31.980Z,97644.25
2022-09-05T05:53:33.532Z,97643.22
2022-09-05T05:56:54.254Z,97645.14
2022-09-05T05:59:56.679Z,97655.95
2022-09-05T06:03:26.655Z,97657.95
2022-09-05T06:06:39.579Z,97665.41
2022-09-05T06:14:48.279Z,97665.73
2022-09-05T06:14:57.618Z,97667.87
2022-09-05T06:16:43.948Z,97662.73
2022-09-05T06:22:04.257Z,97660.84
2022-09-05T06:23:39.639Z,97657.60
2022-09-05T06:26:28.218Z,97661.92
2022-09-05T06:29:47.083Z,97671.17
2022-09-05T06:32:58.422Z,97672.48
2022-09-05T06:36:06.791Z,97671.56
2022-09-05T06:39:04.086Z,97669.92
2022-09-05T06:42:04.933Z,97666.91
2022-09-05T06:45:26.972Z,97668.16
2022-09-05T06:48:44.406Z,97665.59
2022-09-05T06:52:04.174Z,97669.16
2022-09-05T06:55:13.480Z,97676.05
2022-09-05T06:58:39.205Z,97676.08
2022-09-05T07:01:59.699Z,97679.39
2022-09-05T07:05:37.855Z,97680.54
2022-09-05T07:08:18.440Z,97683.90
2022-09-05T07:11:19.682Z,97678.17
2022-09-05T07:14:30.409Z,97679.38
2022-09-05T07:17:24.780Z,97675.85
2022-09-05T07:20:26.079Z,97674.80
2022-09-05T07:24:06.385Z,97674.27
2022-09-05T07:26:54.134Z,97679.77
2022-09-05T07:29:49.724Z,97679.06
2022-09-05T07:32:54.199Z,97680.07
2022-09-05T07:35:41.667Z,97682.29
2022-09-05T07:38:50.293Z,97685.27
2022-09-05T07:41:39.093Z,97689.17
2022-09-05T07:44:34.039Z,97693.00
2022-09-05T07:47:26.144Z,97694.96
2022-09-05T07:52:21.095Z,97690.48
2022-09-05T07:56:54.387Z,97690.72
2022-09-05T07:57:22.229Z,97690.61
2022-09-05T08:00:26.010Z,97684.58
2022-09-05T08:03:14.953Z,97687.31
2022-09-05T08:06:13.069Z,97689.82
2022-09-05T08:10:10.168Z,97686.95
2022-09-05T08:13:23.058Z,97682.64
2022-09-05T08:16:13.190Z,97682.27
2022-09-05T08:19:29.195Z,97675.39
2022-09-05T08:22:28.449Z,97673.18
2022-09-05T08:25:18.048Z,97678.27
2022-09-05T08:28:18.920Z,97677.13
2022-09-05T08:31:11.281Z,97677.10
2022-09-05T08:34:02.677Z,97678.17
2022-09-05T08:36:56.396Z,97677.65
2022-09-05T08:39:43.811Z,97679.29
2022-09-05T08:42:52.755Z,97676.05
2022-09-05T08:46:43.900Z,97675.27
2022-09-05T08:49:37.906Z,97674.67
2022-09-05T08:52:48.430Z,97676.90
2022-09-05T08:55:53.072Z,97675.06
2022-09-05T08:59:31.591Z,97674.96
2022-09-05T09:02:47.702Z,97668.02
2022-09-05T09:06:17.330Z,97667.91
2022-09-05T09:09:41.834Z,97664.17
2022-09-05T09:12:42.382Z,97664.73
2022-09-05T09:15:48.654Z,97661.14
2022-09-05T09:18:49.187Z,97663.30
2022-09-05T09:21:46.819Z,97659.65
2022-09-05T09:24:40.830Z,97661.70
2022-09-05T09:28:46.825Z,97660.61
2022-09-05T09:31:40.925Z,97658.34
2022-09-05T09:34:26.588Z,97659.54
2022-09-05T09:37:58.711Z,97662.09
2022-09-05T09:41:00.939Z,97657.71
2022-09-05T09:43:57.599Z,97660.17
2022-09-05T09:46:45.010Z,97657.97
2022-09-05T09:49:54.967Z,97660.25
2022-09-05T09:53:02.002Z,97661.67
2022-09-05T09:56:12.423Z,97656.61
2022-09-05T09:59:17.692Z,97654.08
2022-09-05T10:04:23.802Z,97650.94
2022-09-05T10:10:34.596Z,97643.98
2022-09-05T10:10:58.711Z,97639.08
2022-09-05T10:12:22.327Z,97643.02
2022-09-05T10:15:31.182Z,97637.03
2022-09-05T10:18:27.073Z,97634.66
2022-09-05T10:21:35.821Z,97633.63
2022-09-05T10:24:34.405Z,97629.88
2022-09-05T10:27:27.973Z,97624.04
2022-09-05T10:31:51.393Z,97623.67
2022-09-05T10:35:14.037Z,97621.23
2022-09-05T10:36:54.547Z,97622.45
2022-09-05T10:39:51.369Z,97622.45
2022-09-05T10:42:55.525Z,97618.36
2022-09-05T10:45:57.464Z,97618.13
2022-09-05T10:48:53.832Z,97617.55
2022-09-05T10:51:52.027Z,97624.40
2022-09-05T10:54:49.537Z,97625.02
2022-09-05T10:57:50.021Z,97623.52
2022-09-05T11:02:25.903Z,97621.41
2022-09-05T11:04:46.534Z,97619.25
2022-09-05T11:08:10.809Z,97617.02
2022-09-05T11:11:17.321Z,97612.92
2022-09-05T11:14:48.996Z,97614.98
2022-09-05T11:17:33.920Z,97614.00
2022-09-05T11:20:50.132Z,97614.12
2022-09-05T11:23:57.371Z,97611.74
2022-09-05T11:27:23.574Z,97605.85
2022-09-05T11:30:28.464Z,97604.36
2022-09-05T11:39:47.121Z,97604.92
2022-09-05T11:39:52.514Z,97598.63
2022-09-05T11:40:29.298Z,97597.13
2022-09-05T11:43:37.064Z,97590.79
2022-09-05T11:46:29.471Z,97591.95
2022-09-05T11:49:48.769Z,97591.02
2022-09-05T11:53:32.495Z,97596.69
2022-09-05T11:56:44.105Z,97590.27
2022-09-05T12:00:10.690Z,97582.88
2022-09-05T12:04:03.696Z,97583.06
2022-09-05T12:06:31.787Z,97578.46
2022-09-05T12:09:36.274Z,97575.64
2022-09-05T12:12:41.094Z,97571.43
2022-09-05T12:15:33.727Z,97572.45
2022-09-05T12:18:43.030Z,97570.90
2022-09-05T12:21:28.144Z,97565.88
2022-09-05T12:25:24.908Z,97561.64
2022-09-05T12:27:46.160Z,97561.14
2022-09-05T12:30:41.158Z,97563.31
2022-09-05T12:36:04.325Z,97558.57
2022-09-05T12:40:38.378Z,97551.57
2022-09-05T12:41:42.574Z,97547.92
2022-09-05T12:43:44.991Z,97542.58
2022-09-05T12:46:32.671Z,97545.58
2022-09-05T12:49:36.157Z,97541.50
2022-09-05T12:52:33.177Z,97534.08
2022-09-05T12:55:25.589Z,97527.60
2022-09-05T13:01:31.932Z,97530.57
2022-09-05T13:03:07.540Z,97525.02
2022-09-05T13:05:01.395Z,97523.11
2022-09-05T13:07:57.649Z,97515.91
2022-09-05T13:14:47.604Z,97516.71
2022-09-05T13:15:06.064Z,97517.08
2022-09-05T13:17:08.608Z,97510.13
2022-09-05T13:19:58.370Z,97508.75
2022-09-05T13:22:49.447Z,97507.42
2022-09-05T13:25:36.606Z,97509.56
2022-09-05T13:28:28.309Z,97508.89
2022-09-05T13:37:54.980Z,97515.50
2022-09-05T13:37:58.028Z,97514.73
2022-09-05T13:38:37.785Z,97514.60
2022-09-05T13:41:28.818Z,97512.92
2022-09-05T13:44:27.370Z,97517.19
2022-09-05T13:47:29.310Z,97514.27
2022-09-05T13:50:30.654Z,97513.94
2022-09-05T13:53:35.845Z,97511.83
2022-09-05T13:56:30.681Z,97513.56
2022-09-05T13:59:21.057Z,97515.79
2022-09-05T14:03:29.899Z,97518.27
2022-09-05T14:06:02.683Z,97515.22
2022-09-05T14:12:37.547Z,97516.20
2022-09-05T14:15:38.291Z,97516.58
2022-09-05T14:18:29.623Z,97517.98
2022-09-05T14:21:15.170Z,97517.61
2022-09-05T14:24:13.337Z,97520.98
2022-09-05T14:27:31.815Z,97524.55
2022-09-05T14:32:39.864Z,97522.86
2022-09-05T14:37:40.123Z,97523.90
2022-09-05T14:37:51.716Z,97525.37
2022-09-05T14:39:59.058Z,97524.77
2022-09-05T14:42:43.680Z,97526.13
2022-09-05T14:45:39.937Z,97526.27
2022-09-05T14:48:30.224Z,97522.69
2022-09-05T14:51:25.589Z,97524.55
2022-09-05T14:58:59.684Z,97524.64
2022-09-05T15:02:45.489Z,97525.90
2022-09-05T15:02:51.985Z,97525.05
2022-09-05T15:05:15.464Z,97521.11
2022-09-05T15:07:48.355Z,97518.71
2022-09-05T15:12:15.442Z,97518.75
2022-09-05T15:13:13.564Z,97520.63
2022-09-05T15:16:08.666Z,97516.92
2022-09-05T15:18:45.277Z,97520.73
2022-09-05T15:21:30.620Z,97520.66
2022-09-05T15:24:15.203Z,97523.44
2022-09-05T15:26:54.125Z,97521.58
2022-09-05T15:29:27.822Z,97515.00
2022-09-05T15:32:22.463Z,97516.21
2022-09-05T15:35:01.330Z,97522.40
2022-09-05T15:37:40.583Z,97519.08
2022-09-05T15:40:22.101Z,97522.52
2022-09-05T15:43:01.481Z,97519.52
2022-09-05T15:45:34.934Z,97515.55
2022-09-05T15:48:12.508Z,97520.47
2022-09-05T15:50:55.157Z,97522.70
2022-09-05T15:53:31.092Z,97518.89
2022-09-05T15:56:15.599Z,97516.67
2022-09-05T15:58:57.973Z,97515.98
2022-09-05T16:01:58.502Z,97518.16
2022-09-05T16:10:31.286Z,97518.32
2022-09-05T16:10:43.466Z,97518.30
2022-09-05T16:10:59.096Z,97516.70
2022-09-05T16:13:16.702Z,97511.27
2022-09-05T16:18:58.598Z,97512.86
2022-09-05T16:23:13.033Z,97513.67
2022-09-05T16:23:13.357Z,97512.98
2022-09-05T16:24:41.566Z,97515.30
2022-09-05T16:27:33.360Z,97516.64
2022-09-05T16:30:01.583Z,97521.35
2022-09-05T16:32:30.478Z,97516.40
2022-09-05T16:35:10.308Z,97514.25
2022-09-05T16:37:50.391Z,97512.84
2022-09-05T16:40:35.175Z,97513.83
2022-09-05T16:43:17.696Z,97509.13
2022-09-05T16:46:28.184Z,97510.58
2022-09-05T16:48:58.160Z,97512.03
2022-09-05T16:51:55.019Z,97512.99
2022-09-05T16:54:46.697Z,97516.66
2022-09-05T16:57:26.271Z,97516.20
2022-09-05T17:00:01.091Z,97517.02
2022-09-05T17:02:43.389Z,97522.27
2022-09-05T17:05:22.309Z,97518.77
2022-09-05T17:07:59.646Z,97519.58
2022-09-05T17:10:58.128Z,97522.36
2022-09-05T17:13:48.983Z,97527.14
2022-09-05T17:16:22.188Z,97524.61
2022-09-05T17:18:52.080Z,97525.91
2022-09-05T17:23:02.821Z,97529.64
2022-09-05T17:29:16.732Z,97535.71
2022-09-05T17:29:35.288Z,97531.73
2022-09-05T17:33:45.066Z,97540.11
2022-09-05T17:36:33.610Z,97536.48
2022-09-05T17:39:14.201Z,97530.65
2022-09-05T17:42:02.606Z,97530.91
2022-09-05T17:44:43.173Z,97538.33
2022-09-05T17:47:36.513Z,97547.60
2022-09-05T17:50:15.302Z,97546.83
2022-09-05T17:53:26.131Z,97551.66
2022-09-05T17:55:50.403Z,97554.93
2022-09-05T17:58:49.655Z,97556.49
2022-09-05T18:01:26.667Z,97560.58
2022-09-05T18:04:06.813Z,97564.75
2022-09-05T18:06:58.936Z,97567.61
2022-09-05T18:09:37.147Z,97564.83
2022-09-05T18:15:22.228Z,97564.55
2022-09-05T18:17:57.871Z,97562.34
2022-09-05T18:20:53.542Z,97557.70
2022-09-05T18:23:46.725Z,97557.70
2022-09-05T18:26:26.268Z,97556.95
2022-09-05T18:29:19.890Z,97561.91
2022-09-05T18:31:51.702Z,97561.21
2022-09-05T18:34:19.625Z,97560.35
2022-09-05T18:39:52.440Z,97561.32
2022-09-05T18:42:34.221Z,97556.99
2022-09-05T18:45:14.819Z,97554.15
2022-09-05T18:47:59.333Z,97551.20
2022-09-05T18:53:33.507Z,97543.95
2022-09-05T18:56:19.942Z,97537.48
2022-09-05T18:59:18.999Z,97538.79
2022-09-05T19:02:40.375Z,97539.09
2022-09-05T19:05:34.732Z,97535.98
2022-09-05T19:08:32.054Z,97535.80
2022-09-05T19:11:27.937Z,97530.75
2022-09-05T19:14:25.481Z,97538.05
2022-09-05T19:16:48.414Z,97543.98
2022-09-05T19:19:30.575Z,97539.09
2022-09-05T19:23:08.668Z,97541.02
2022-09-05T19:25:26.337Z,97540.98
2022-09-05T19:36:43.993Z,97544.75
2022-09-05T19:36:57.862Z,97542.55
2022-09-05T19:37:23.714Z,97539.16
2022-09-05T19:37:44.731Z,97533.75
2022-09-05T19:47:10.952Z,97537.94
2022-09-05T19:47:39.303Z,97537.73
2022-09-05T19:47:43.283Z,97540.95
2022-09-05T19:49:17.249Z,97543.67
2022-09-05T19:51:50.576Z,97540.05
2022-09-05T19:54:26.055Z,97543.32
2022-09-05T19:57:16.566Z,97544.09
2022-09-05T19:59:45.620Z,97543.65
2022-09-05T20:02:26.152Z,97546.06
2022-09-05T20:04:59.314Z,97549.16
2022-09-05T20:07:31.654Z,97546.51
2022-09-05T20:10:02.292Z,97551.18
2022-09-05T20:12:42.854Z,97550.23
2022-09-05T20:15:24.834Z,97549.80
2022-09-05T20:18:00.702Z,97553.25
2022-09-05T20:21:03.974Z,97556.96
2022-09-05T20:23:31.956Z,97557.73
2022-09-05T20:26:04.027Z,97557.98
2022-09-05T20:28:37.243Z,97556.80
2022-09-05T20:31:11.897Z,97555.52
2022-09-05T20:33:42.195Z,97550.36
2022-09-05T20:43:11.113Z,97551.09
2022-09-05T20:43:24.178Z,97547.36
2022-09-05T20:43:36.695Z,97545.45
2022-09-05T20:44:51.583Z,97542.20
2022-09-05T20:51:33.272Z,97536.38
2022-09-05T20:54:16.034Z,97543.09
2022-09-05T20:54:23.016Z,97537.57
2022-09-05T20:56:24.101Z,97539.40
2022-09-05T20:58:56.913Z,97542.08
2022-09-05T21:01:26.804Z,97552.08
2022-09-05T21:03:57.190Z,97549.08
2022-09-05T21:06:35.549Z,97550.16
2022-09-05T21:09:25.399Z,97545.42
2022-09-05T21:11:55.772Z,97546.90
2022-09-05T21:14:28.212Z,97546.77
2022-09-05T21:17:14.832Z,97546.58
2022-09-05T21:19:58.347Z,97545.59
2022-09-05T21:22:43.940Z,97546.65
2022-09-05T21:25:17.255Z,97540.21
2022-09-05T21:28:01.804Z,97545.05
2022-09-05T21:30:40.971Z,97540.41
2022-09-05T21:33:18.561Z,97544.88
2022-09-05T21:35:50.989Z,97547.78
2022-09-05T21:38:32.666Z,97547.46
2022-09-05T21:41:01.692Z,97544.55
2022-09-05T21:47:35.624Z,97544.22
2022-09-05T21:47:47.784Z,97538.81
2022-09-05T21:49:22.244Z,97537.23
2022-09-05T21:51:52.670Z,97537.52
2022-09-05T21:59:15.201Z,97534.00
2022-09-05T21:59:24.927Z,97530.02
2022-09-05T22:00:14.577Z,97532.19
2022-09-05T22:02:49.238Z,97530.49
2022-09-05T22:05:25.000Z,97538.04
2022-09-05T22:08:02.505Z,97536.77
2022-09-05T22:13:20.987Z,97538.80
2022-09-05T22:18:47.005Z,97537.78
2022-09-05T22:21:32.939Z,97535.80
2022-09-05T22:24:09.525Z,97532.36
2022-09-05T22:27:12.313Z,97536.06
2022-09-05T22:29:39.273Z,97540.35
2022-09-05T22:32:16.374Z,97535.90
2022-09-05T22:34:55.090Z,97537.83
2022-09-05T22:37:22.374Z,97533.20
2022-09-05T22:39:52.578Z,97529.60
2022-09-05T22:42:22.693Z,97531.95
2022-09-05T22:44:56.392Z,97529.95
2022-09-05T22:47:29.253Z,97527.73
2022-09-05T22:50:03.486Z,97525.78
2022-09-05T22:52:30.566Z,97526.86
2022-09-05T22:54:57.715Z,97531.69
2022-09-05T22:57:24.869Z,97533.96
2022-09-05T22:59:52.206Z,97534.11
2022-09-05T23:02:19.275Z,97531.89
2022-09-05T23:04:53.645Z,97532.66
2022-09-05T23:07:20.980Z,97532.63
2022-09-05T23:09:48.218Z,97528.23
2022-09-05T23:12:15.348Z,97528.97
2022-09-05T23:14:44.848Z,97526.23
2022-09-05T23:17:14.244Z,97521.29
2022-09-05T23:19:41.880Z,97522.06
2022-09-05T23:22:09.054Z,97522.83
2022-09-05T23:24:38.501Z,97524.95
2022-09-05T23:27:05.699Z,97523.56
2022-09-05T23:29:33.012Z,97520.89
2022-09-05T23:31:59.999Z,97518.56
2022-09-05T23:34:32.635Z,97516.09
2022-09-05T23:36:59.914Z,97517.88
2022-09-05T23:39:28.158Z,97513.04
2022-09-05T23:41:55.252Z,97515.85
2022-09-05T23:44:22.408Z,97515.35
2022-09-05T23:46:50.124Z,97514.04
2022-09-05T23:49:18.035Z,97514.71
2022-09-05T23:51:45.830Z,97514.71
2022-09-05T23:54:16.116Z,97513.05
2022-09-05T23:56:44.214Z,97511.02
2022-09-05T23:59:11.566Z,97510.13
